5NK9 weather

Treichler Farm Airport
Wales, New York, United States

Public forecast

Using degrees Fahrenheit for public forecast. Weather courtesy of forecast.io.

Closest aviation weather report (METAR) to Treichler Farm Airport

Closest report is Buffalo Niagara International Airport, 14.9 nm (27.7 km) NW. Retrieved 2020/07/03 19:54 UTC (12 minutes ago):

KBUF 031954Z 34009KT 10SM SCT050 BKN070 BKN250 31/18 A2993 RMK AO2 SLP130 T03060183

Closest aviation forecast (TAF) to Treichler Farm Airport

Closest forecast is Buffalo Niagara International Airport, 14.9 nm (27.7 km) NW. Retrieved 2020/07/03 18:36 UTC (2 hours ago):

TAF KBUF 031735Z 0318/0418 34007KT P6SM FEW060 FEW120 FM032300 VRB04KT P6SM FEW050 SCT100 FM040600 VRB04KT P6SM FEW050 FEW250 FM041700 02005KT P6SM FEW250